sensor_id;sensor_type;location;lat;lon;timestamp;temperature;humidity
16674;DHT22;8450;52.654;10.326;2022-07-23T04:35:16;11.70;99.90
16674;DHT22;8450;52.654;10.326;2022-07-23T04:37:42;11.70;99.90
16674;DHT22;8450;52.654;10.326;2022-07-23T04:40:08;11.80;99.90
16674;DHT22;8450;52.654;10.326;2022-07-23T04:42:35;12.00;99.90
16674;DHT22;8450;52.654;10.326;2022-07-23T04:45:01;12.00;99.90
16674;DHT22;8450;52.654;10.326;2022-07-23T04:47:26;12.10;99.90
16674;DHT22;8450;52.654;10.326;2022-07-23T04:49:52;12.10;99.90
16674;DHT22;8450;52.654;10.326;2022-07-23T04:52:17;12.10;99.90
16674;DHT22;8450;52.654;10.326;2022-07-23T04:54:43;12.20;99.90
16674;DHT22;8450;52.654;10.326;2022-07-23T04:57:08;12.30;99.90
16674;DHT22;8450;52.654;10.326;2022-07-23T04:59:34;12.30;99.90
16674;DHT22;8450;52.654;10.326;2022-07-23T05:02:03;12.30;99.90
16674;DHT22;8450;52.654;10.326;2022-07-23T05:04:30;12.40;99.90
16674;DHT22;8450;52.654;10.326;2022-07-23T05:06:57;12.40;99.90
16674;DHT22;8450;52.654;10.326;2022-07-23T05:09:23;12.50;99.90
16674;DHT22;8450;52.654;10.326;2022-07-23T05:11:50;12.60;99.90
16674;DHT22;8450;52.654;10.326;2022-07-23T05:14:15;12.70;99.90
16674;DHT22;8450;52.654;10.326;2022-07-23T05:16:42;12.80;99.90
16674;DHT22;8450;52.654;10.326;2022-07-23T05:19:12;12.90;99.90
16674;DHT22;8450;52.654;10.326;2022-07-23T05:21:39;12.90;99.90
16674;DHT22;8450;52.654;10.326;2022-07-23T05:24:05;13.00;99.90
16674;DHT22;8450;52.654;10.326;2022-07-23T05:26:31;13.00;99.90
16674;DHT22;8450;52.654;10.326;2022-07-23T05:28:57;13.10;99.90
16674;DHT22;8450;52.654;10.326;2022-07-23T05:31:22;13.10;99.90
16674;DHT22;8450;52.654;10.326;2022-07-23T05:33:48;13.10;99.90
16674;DHT22;8450;52.654;10.326;2022-07-23T05:36:14;13.10;99.90
16674;DHT22;8450;52.654;10.326;2022-07-23T05:38:45;13.20;99.90
16674;DHT22;8450;52.654;10.326;2022-07-23T05:41:11;13.20;99.90
16674;DHT22;8450;52.654;10.326;2022-07-23T05:43:37;13.30;99.90
16674;DHT22;8450;52.654;10.326;2022-07-23T05:46:08;13.30;99.90
16674;DHT22;8450;52.654;10.326;2022-07-23T05:48:36;13.40;99.90
16674;DHT22;8450;52.654;10.326;2022-07-23T05:51:07;13.40;99.90
16674;DHT22;8450;52.654;10.326;2022-07-23T05:53:34;13.40;99.90
16674;DHT22;8450;52.654;10.326;2022-07-23T05:56:07;13.40;99.90
16674;DHT22;8450;52.654;10.326;2022-07-23T05:58:32;13.50;99.90
16674;DHT22;8450;52.654;10.326;2022-07-23T06:00:58;13.60;99.90
16674;DHT22;8450;52.654;10.326;2022-07-23T06:03:26;13.70;99.90
16674;DHT22;8450;52.654;10.326;2022-07-23T06:05:52;13.80;99.90
16674;DHT22;8450;52.654;10.326;2022-07-23T06:08:17;14.00;99.90
16674;DHT22;8450;52.654;10.326;2022-07-23T06:10:43;14.00;99.90
16674;DHT22;8450;52.654;10.326;2022-07-23T06:13:09;14.00;99.90
16674;DHT22;8450;52.654;10.326;2022-07-23T06:15:35;14.10;99.90
16674;DHT22;8450;52.654;10.326;2022-07-23T06:18:00;14.30;99.90
16674;DHT22;8450;52.654;10.326;2022-07-23T06:20:26;14.50;99.90
16674;DHT22;8450;52.654;10.326;2022-07-23T06:22:52;14.70;99.90
16674;DHT22;8450;52.654;10.326;2022-07-23T06:25:17;14.70;99.90
16674;DHT22;8450;52.654;10.326;2022-07-23T06:27:43;14.80;99.90
16674;DHT22;8450;52.654;10.326;2022-07-23T06:30:11;14.90;99.90
16674;DHT22;8450;52.654;10.326;2022-07-23T06:32:37;15.20;99.90
16674;DHT22;8450;52.654;10.326;2022-07-23T06:35:03;15.30;99.90
16674;DHT22;8450;52.654;10.326;2022-07-23T06:37:28;15.60;99.90
16674;DHT22;8450;52.654;10.326;2022-07-23T06:39:54;15.80;99.90
16674;DHT22;8450;52.654;10.326;2022-07-23T06:42:20;16.00;99.90
16674;DHT22;8450;52.654;10.326;2022-07-23T06:44:52;16.20;99.90
16674;DHT22;8450;52.654;10.326;2022-07-23T06:47:17;16.40;99.90
16674;DHT22;8450;52.654;10.326;2022-07-23T06:49:43;16.50;99.90
16674;DHT22;8450;52.654;10.326;2022-07-23T06:52:08;16.60;99.90
16674;DHT22;8450;52.654;10.326;2022-07-23T06:54:34;16.70;99.90
16674;DHT22;8450;52.654;10.326;2022-07-23T06:57:00;16.90;99.90
16674;DHT22;8450;52.654;10.326;2022-07-23T06:59:26;17.10;99.90
16674;DHT22;8450;52.654;10.326;2022-07-23T07:01:52;17.20;99.90
16674;DHT22;8450;52.654;10.326;2022-07-23T07:04:17;17.30;99.90
16674;DHT22;8450;52.654;10.326;2022-07-23T07:06:43;17.50;99.90
16674;DHT22;8450;52.654;10.326;2022-07-23T07:09:08;17.50;99.90
16674;DHT22;8450;52.654;10.326;2022-07-23T07:11:34;17.60;99.90
16674;DHT22;8450;52.654;10.326;2022-07-23T07:14:00;17.80;99.90
16674;DHT22;8450;52.654;10.326;2022-07-23T07:16:25;18.00;99.90
16674;DHT22;8450;52.654;10.326;2022-07-23T07:18:51;18.10;99.90
16674;DHT22;8450;52.654;10.326;2022-07-23T07:21:16;18.10;99.90
16674;DHT22;8450;52.654;10.326;2022-07-23T07:23:42;18.20;99.90
16674;DHT22;8450;52.654;10.326;2022-07-23T07:26:07;18.40;99.90
16674;DHT22;8450;52.654;10.326;2022-07-23T07:28:33;18.40;99.90
16674;DHT22;8450;52.654;10.326;2022-07-23T07:30:59;18.60;99.90
16674;DHT22;8450;52.654;10.326;2022-07-23T07:33:24;18.80;99.90
16674;DHT22;8450;52.654;10.326;2022-07-23T07:35:50;18.60;99.90
16674;DHT22;8450;52.654;10.326;2022-07-23T07:38:15;18.90;99.90
16674;DHT22;8450;52.654;10.326;2022-07-23T07:40:41;18.90;99.90
16674;DHT22;8450;52.654;10.326;2022-07-23T07:43:06;18.90;99.90
16674;DHT22;8450;52.654;10.326;2022-07-23T07:45:32;19.10;99.90
16674;DHT22;8450;52.654;10.326;2022-07-23T07:47:58;18.90;99.90
16674;DHT22;8450;52.654;10.326;2022-07-23T07:50:24;18.70;99.90
16674;DHT22;8450;52.654;10.326;2022-07-23T07:52:49;18.40;99.90
16674;DHT22;8450;52.654;10.326;2022-07-23T07:55:15;18.60;99.90
16674;DHT22;8450;52.654;10.326;2022-07-23T07:57:41;19.10;99.90
16674;DHT22;8450;52.654;10.326;2022-07-23T08:00:08;19.60;99.90
16674;DHT22;8450;52.654;10.326;2022-07-23T08:02:57;19.40;99.90
16674;DHT22;8450;52.654;10.326;2022-07-23T08:05:25;19.50;99.90
16674;DHT22;8450;52.654;10.326;2022-07-23T08:07:51;19.80;99.90
16674;DHT22;8450;52.654;10.326;2022-07-23T08:10:17;20.00;99.90
16674;DHT22;8450;52.654;10.326;2022-07-23T08:12:48;20.30;99.90
16674;DHT22;8450;52.654;10.326;2022-07-23T08:15:15;19.80;99.90
16674;DHT22;8450;52.654;10.326;2022-07-23T08:17:42;19.50;99.90
16674;DHT22;8450;52.654;10.326;2022-07-23T08:20:10;20.00;99.90
16674;DHT22;8450;52.654;10.326;2022-07-23T08:23:02;20.10;99.90
16674;DHT22;8450;52.654;10.326;2022-07-23T08:25:31;20.40;99.90
16674;DHT22;8450;52.654;10.326;2022-07-23T08:27:58;20.60;99.90
16674;DHT22;8450;52.654;10.326;2022-07-23T08:30:24;20.40;99.90
16674;DHT22;8450;52.654;10.326;2022-07-23T08:32:57;19.50;99.90
16674;DHT22;8450;52.654;10.326;2022-07-23T08:35:26;19.60;99.90
16674;DHT22;8450;52.654;10.326;2022-07-23T08:37:52;19.50;99.90
16674;DHT22;8450;52.654;10.326;2022-07-23T08:40:18;19.80;99.90
16674;DHT22;8450;52.654;10.326;2022-07-23T08:42:46;19.80;99.90
16674;DHT22;8450;52.654;10.326;2022-07-23T08:45:12;19.60;99.90
16674;DHT22;8450;52.654;10.326;2022-07-23T08:47:40;19.90;99.90
16674;DHT22;8450;52.654;10.326;2022-07-23T08:50:07;19.80;99.90
16674;DHT22;8450;52.654;10.326;2022-07-23T08:52:34;19.30;99.90
16674;DHT22;8450;52.654;10.326;2022-07-23T08:55:01;19.70;99.90
16674;DHT22;8450;52.654;10.326;2022-07-23T08:57:27;20.20;99.90
16674;DHT22;8450;52.654;10.326;2022-07-23T08:59:52;20.70;99.90
16674;DHT22;8450;52.654;10.326;2022-07-23T09:02:18;21.30;99.90
16674;DHT22;8450;52.654;10.326;2022-07-23T09:04:44;21.70;99.90
16674;DHT22;8450;52.654;10.326;2022-07-23T09:07:09;21.00;99.90
16674;DHT22;8450;52.654;10.326;2022-07-23T09:09:35;21.00;99.90
16674;DHT22;8450;52.654;10.326;2022-07-23T09:12:06;21.30;99.90
16674;DHT22;8450;52.654;10.326;2022-07-23T09:14:43;21.30;99.90
16674;DHT22;8450;52.654;10.326;2022-07-23T09:17:12;20.60;99.90
16674;DHT22;8450;52.654;10.326;2022-07-23T09:19:39;20.80;99.90
16674;DHT22;8450;52.654;10.326;2022-07-23T09:22:21;21.10;99.90
16674;DHT22;8450;52.654;10.326;2022-07-23T09:27:58;21.70;99.90
16674;DHT22;8450;52.654;10.326;2022-07-23T09:30:26;21.80;99.90
16674;DHT22;8450;52.654;10.326;2022-07-23T09:35:53;22.00;99.90
16674;DHT22;8450;52.654;10.326;2022-07-23T09:38:20;22.20;99.90
16674;DHT22;8450;52.654;10.326;2022-07-23T09:40:47;22.30;99.90
16674;DHT22;8450;52.654;10.326;2022-07-23T09:43:14;22.20;99.90
16674;DHT22;8450;52.654;10.326;2022-07-23T09:45:50;21.80;99.90
16674;DHT22;8450;52.654;10.326;2022-07-23T09:48:17;21.80;99.90
16674;DHT22;8450;52.654;10.326;2022-07-23T09:50:43;22.00;99.90
16674;DHT22;8450;52.654;10.326;2022-07-23T09:53:10;22.30;99.90
16674;DHT22;8450;52.654;10.326;2022-07-23T09:55:36;22.90;99.90
16674;DHT22;8450;52.654;10.326;2022-07-23T09:58:05;22.80;99.90
16674;DHT22;8450;52.654;10.326;2022-07-23T10:00:34;22.50;99.90
16674;DHT22;8450;52.654;10.326;2022-07-23T10:03:01;22.00;99.90
16674;DHT22;8450;52.654;10.326;2022-07-23T10:05:29;22.00;99.90
16674;DHT22;8450;52.654;10.326;2022-07-23T10:08:17;21.60;99.90
16674;DHT22;8450;52.654;10.326;2022-07-23T10:11:02;21.30;99.90
16674;DHT22;8450;52.654;10.326;2022-07-23T10:13:35;21.50;99.90
16674;DHT22;8450;52.654;10.326;2022-07-23T10:16:22;21.90;99.90
16674;DHT22;8450;52.654;10.326;2022-07-23T10:18:48;22.50;99.90
16674;DHT22;8450;52.654;10.326;2022-07-23T10:21:21;23.30;99.90
16674;DHT22;8450;52.654;10.326;2022-07-23T10:24:04;23.60;99.90
16674;DHT22;8450;52.654;10.326;2022-07-23T10:29:48;23.60;99.90
16674;DHT22;8450;52.654;10.326;2022-07-23T10:32:37;23.70;99.90
16674;DHT22;8450;52.654;10.326;2022-07-23T10:37:36;23.60;99.90
16674;DHT22;8450;52.654;10.326;2022-07-23T10:40:19;23.10;99.90
16674;DHT22;8450;52.654;10.326;2022-07-23T10:42:48;22.80;99.90
16674;DHT22;8450;52.654;10.326;2022-07-23T10:45:36;23.00;99.90
16674;DHT22;8450;52.654;10.326;2022-07-23T10:48:20;23.70;99.90
16674;DHT22;8450;52.654;10.326;2022-07-23T10:51:11;23.80;99.90
16674;DHT22;8450;52.654;10.326;2022-07-23T10:53:54;24.60;99.90
16674;DHT22;8450;52.654;10.326;2022-07-23T10:56:49;24.60;99.90
16674;DHT22;8450;52.654;10.326;2022-07-23T10:59:16;25.10;99.90
16674;DHT22;8450;52.654;10.326;2022-07-23T11:01:41;25.20;99.90
16674;DHT22;8450;52.654;10.326;2022-07-23T11:04:07;25.90;99.90
16674;DHT22;8450;52.654;10.326;2022-07-23T11:09:49;24.50;99.90
16674;DHT22;8450;52.654;10.326;2022-07-23T11:17:27;24.00;99.90
16674;DHT22;8450;52.654;10.326;2022-07-23T11:25:28;24.10;99.90
16674;DHT22;8450;52.654;10.326;2022-07-23T11:27:55;25.00;99.90
16674;DHT22;8450;52.654;10.326;2022-07-23T11:33:15;23.80;99.90
16674;DHT22;8450;52.654;10.326;2022-07-23T11:35:42;23.80;99.90
16674;DHT22;8450;52.654;10.326;2022-07-23T11:38:17;24.40;99.90
16674;DHT22;8450;52.654;10.326;2022-07-23T11:40:45;24.90;99.90
16674;DHT22;8450;52.654;10.326;2022-07-23T11:43:11;25.40;99.90
16674;DHT22;8450;52.654;10.326;2022-07-23T11:45:42;25.00;99.90
16674;DHT22;8450;52.654;10.326;2022-07-23T11:48:15;24.40;99.90
16674;DHT22;8450;52.654;10.326;2022-07-23T11:50:41;25.20;99.90
16674;DHT22;8450;52.654;10.326;2022-07-23T11:53:06;26.00;99.90
16674;DHT22;8450;52.654;10.326;2022-07-23T11:55:32;25.50;99.90
16674;DHT22;8450;52.654;10.326;2022-07-23T11:57:58;26.70;99.90
16674;DHT22;8450;52.654;10.326;2022-07-23T12:00:26;26.20;99.90
16674;DHT22;8450;52.654;10.326;2022-07-23T12:02:55;25.90;99.90
16674;DHT22;8450;52.654;10.326;2022-07-23T12:05:27;25.60;99.90
16674;DHT22;8450;52.654;10.326;2022-07-23T12:07:54;26.20;99.90
16674;DHT22;8450;52.654;10.326;2022-07-23T12:10:39;26.60;99.90
16674;DHT22;8450;52.654;10.326;2022-07-23T12:13:17;26.60;99.90
16674;DHT22;8450;52.654;10.326;2022-07-23T12:15:53;26.70;99.90
16674;DHT22;8450;52.654;10.326;2022-07-23T12:18:26;26.00;99.90
16674;DHT22;8450;52.654;10.326;2022-07-23T12:20:54;25.30;99.90
16674;DHT22;8450;52.654;10.326;2022-07-23T12:23:22;25.90;99.90
16674;DHT22;8450;52.654;10.326;2022-07-23T12:25:51;26.10;99.90
16674;DHT22;8450;52.654;10.326;2022-07-23T12:28:22;26.00;99.90
16674;DHT22;8450;52.654;10.326;2022-07-23T12:30:53;25.40;99.90
16674;DHT22;8450;52.654;10.326;2022-07-23T12:33:24;24.90;99.90
16674;DHT22;8450;52.654;10.326;2022-07-23T12:35:53;24.90;99.90
16674;DHT22;8450;52.654;10.326;2022-07-23T12:38:21;24.60;99.90
16674;DHT22;8450;52.654;10.326;2022-07-23T12:46:02;25.50;99.90
16674;DHT22;8450;52.654;10.326;2022-07-23T12:48:58;26.20;99.90
16674;DHT22;8450;52.654;10.326;2022-07-23T12:51:28;26.10;99.90
16674;DHT22;8450;52.654;10.326;2022-07-23T12:53:58;26.60;99.90
16674;DHT22;8450;52.654;10.326;2022-07-23T12:56:35;26.70;99.90
16674;DHT22;8450;52.654;10.326;2022-07-23T13:01:37;27.00;99.90
16674;DHT22;8450;52.654;10.326;2022-07-23T13:04:13;26.90;99.90
16674;DHT22;8450;52.654;10.326;2022-07-23T13:06:42;27.30;99.90
16674;DHT22;8450;52.654;10.326;2022-07-23T13:09:10;26.10;99.90
16674;DHT22;8450;52.654;10.326;2022-07-23T13:11:38;26.20;99.90
16674;DHT22;8450;52.654;10.326;2022-07-23T13:14:03;27.20;99.90
16674;DHT22;8450;52.654;10.326;2022-07-23T13:16:30;26.50;99.90
16674;DHT22;8450;52.654;10.326;2022-07-23T13:18:57;26.70;99.90
16674;DHT22;8450;52.654;10.326;2022-07-23T13:21:23;27.30;99.90
16674;DHT22;8450;52.654;10.326;2022-07-23T13:23:49;27.10;99.60
16674;DHT22;8450;52.654;10.326;2022-07-23T13:26:15;27.60;99.90
16674;DHT22;8450;52.654;10.326;2022-07-23T13:28:40;26.50;99.90
16674;DHT22;8450;52.654;10.326;2022-07-23T13:31:06;26.20;99.90
16674;DHT22;8450;52.654;10.326;2022-07-23T13:33:33;25.40;99.90
16674;DHT22;8450;52.654;10.326;2022-07-23T13:35:58;25.50;99.90
16674;DHT22;8450;52.654;10.326;2022-07-23T13:38:24;26.30;99.90
16674;DHT22;8450;52.654;10.326;2022-07-23T13:40:51;27.10;99.90
16674;DHT22;8450;52.654;10.326;2022-07-23T13:43:19;27.80;99.90
16674;DHT22;8450;52.654;10.326;2022-07-23T13:45:44;28.30;99.90
16674;DHT22;8450;52.654;10.326;2022-07-23T13:48:12;27.00;99.90
16674;DHT22;8450;52.654;10.326;2022-07-23T13:50:38;26.50;99.90
16674;DHT22;8450;52.654;10.326;2022-07-23T13:53:07;26.60;99.90
16674;DHT22;8450;52.654;10.326;2022-07-23T13:55:35;27.10;99.90
16674;DHT22;8450;52.654;10.326;2022-07-23T13:58:01;27.40;99.70
16674;DHT22;8450;52.654;10.326;2022-07-23T14:00:27;26.90;99.90
16674;DHT22;8450;52.654;10.326;2022-07-23T14:02:54;26.40;99.90
16674;DHT22;8450;52.654;10.326;2022-07-23T14:05:20;26.00;99.90
16674;DHT22;8450;52.654;10.326;2022-07-23T14:07:46;25.80;99.90
16674;DHT22;8450;52.654;10.326;2022-07-23T14:10:12;26.50;99.90
16674;DHT22;8450;52.654;10.326;2022-07-23T14:12:38;26.40;99.20
16674;DHT22;8450;52.654;10.326;2022-07-23T14:15:05;26.90;98.90
16674;DHT22;8450;52.654;10.326;2022-07-23T14:17:31;27.20;98.10
16674;DHT22;8450;52.654;10.326;2022-07-23T14:19:58;27.20;98.20
16674;DHT22;8450;52.654;10.326;2022-07-23T14:22:24;27.90;97.50
16674;DHT22;8450;52.654;10.326;2022-07-23T14:24:49;27.60;97.50
16674;DHT22;8450;52.654;10.326;2022-07-23T14:27:16;28.50;97.60
16674;DHT22;8450;52.654;10.326;2022-07-23T14:29:42;26.50;98.50
16674;DHT22;8450;52.654;10.326;2022-07-23T14:32:07;26.60;97.90
16674;DHT22;8450;52.654;10.326;2022-07-23T14:34:34;27.30;99.30
16674;DHT22;8450;52.654;10.326;2022-07-23T14:37:00;27.90;98.20
16674;DHT22;8450;52.654;10.326;2022-07-23T14:39:25;28.30;96.80
16674;DHT22;8450;52.654;10.326;2022-07-23T14:41:51;27.40;97.00
16674;DHT22;8450;52.654;10.326;2022-07-23T14:44:17;26.60;98.30
16674;DHT22;8450;52.654;10.326;2022-07-23T14:46:43;27.00;98.50
16674;DHT22;8450;52.654;10.326;2022-07-23T14:49:08;27.20;97.60
16674;DHT22;8450;52.654;10.326;2022-07-23T14:51:34;27.10;97.00
16674;DHT22;8450;52.654;10.326;2022-07-23T14:54:00;27.30;96.30
16674;DHT22;8450;52.654;10.326;2022-07-23T14:56:25;27.70;96.70
16674;DHT22;8450;52.654;10.326;2022-07-23T14:58:51;27.50;96.60
16674;DHT22;8450;52.654;10.326;2022-07-23T15:01:17;27.00;96.20
16674;DHT22;8450;52.654;10.326;2022-07-23T15:03:42;26.60;97.20
16674;DHT22;8450;52.654;10.326;2022-07-23T15:06:08;27.40;97.30
16674;DHT22;8450;52.654;10.326;2022-07-23T15:08:33;26.60;96.80
16674;DHT22;8450;52.654;10.326;2022-07-23T15:10:59;26.40;98.70
16674;DHT22;8450;52.654;10.326;2022-07-23T15:13:24;26.70;97.90
16674;DHT22;8450;52.654;10.326;2022-07-23T15:15:50;27.10;97.60
16674;DHT22;8450;52.654;10.326;2022-07-23T15:18:16;27.70;97.90
16674;DHT22;8450;52.654;10.326;2022-07-23T15:20:41;27.40;96.60
16674;DHT22;8450;52.654;10.326;2022-07-23T15:23:07;26.60;96.80
16674;DHT22;8450;52.654;10.326;2022-07-23T15:25:33;26.30;97.40
16674;DHT22;8450;52.654;10.326;2022-07-23T15:27:59;27.00;97.70
16674;DHT22;8450;52.654;10.326;2022-07-23T15:30:25;27.10;97.30
16674;DHT22;8450;52.654;10.326;2022-07-23T15:32:51;27.90;98.40
16674;DHT22;8450;52.654;10.326;2022-07-23T15:35:17;28.40;95.90
16674;DHT22;8450;52.654;10.326;2022-07-23T15:37:43;27.00;96.60
16674;DHT22;8450;52.654;10.326;2022-07-23T15:40:09;27.00;98.70
16674;DHT22;8450;52.654;10.326;2022-07-23T15:42:35;27.20;96.50
16674;DHT22;8450;52.654;10.326;2022-07-23T15:45:01;28.20;99.00
16674;DHT22;8450;52.654;10.326;2022-07-23T15:47:27;28.40;97.00
16674;DHT22;8450;52.654;10.326;2022-07-23T15:49:53;27.50;96.60
16674;DHT22;8450;52.654;10.326;2022-07-23T15:52:18;28.00;96.80
16674;DHT22;8450;52.654;10.326;2022-07-23T15:54:44;27.60;96.80
16674;DHT22;8450;52.654;10.326;2022-07-23T15:57:09;27.80;97.20
16674;DHT22;8450;52.654;10.326;2022-07-23T15:59:35;27.10;96.50
16674;DHT22;8450;52.654;10.326;2022-07-23T16:02:01;27.10;97.60
16674;DHT22;8450;52.654;10.326;2022-07-23T16:04:26;27.80;96.90
16674;DHT22;8450;52.654;10.326;2022-07-23T16:06:52;28.50;96.80
16674;DHT22;8450;52.654;10.326;2022-07-23T16:09:17;28.40;96.30
16674;DHT22;8450;52.654;10.326;2022-07-23T16:11:43;27.70;96.50
16674;DHT22;8450;52.654;10.326;2022-07-23T16:14:09;27.50;97.40
16674;DHT22;8450;52.654;10.326;2022-07-23T16:16:34;27.20;96.90
16674;DHT22;8450;52.654;10.326;2022-07-23T16:19:00;28.50;96.80
16674;DHT22;8450;52.654;10.326;2022-07-23T16:21:26;27.00;96.80
16674;DHT22;8450;52.654;10.326;2022-07-23T16:23:52;27.70;97.50
16674;DHT22;8450;52.654;10.326;2022-07-23T16:26:18;26.80;96.90
16674;DHT22;8450;52.654;10.326;2022-07-23T16:28:46;27.20;97.30
16674;DHT22;8450;52.654;10.326;2022-07-23T16:31:12;26.60;97.30
16674;DHT22;8450;52.654;10.326;2022-07-23T16:33:38;27.50;97.20
16674;DHT22;8450;52.654;10.326;2022-07-23T16:36:05;27.70;96.50
16674;DHT22;8450;52.654;10.326;2022-07-23T16:38:33;27.20;97.40
16674;DHT22;8450;52.654;10.326;2022-07-23T16:40:59;27.00;97.20
16674;DHT22;8450;52.654;10.326;2022-07-23T16:43:24;27.70;97.10
16674;DHT22;8450;52.654;10.326;2022-07-23T16:45:55;27.20;97.10
16674;DHT22;8450;52.654;10.326;2022-07-23T16:48:20;27.40;96.90
16674;DHT22;8450;52.654;10.326;2022-07-23T16:50:46;26.90;97.20
16674;DHT22;8450;52.654;10.326;2022-07-23T16:53:12;28.40;97.20
16674;DHT22;8450;52.654;10.326;2022-07-23T16:55:38;28.60;96.40
16674;DHT22;8450;52.654;10.326;2022-07-23T16:58:04;28.50;96.80
16674;DHT22;8450;52.654;10.326;2022-07-23T17:00:30;28.40;96.60
16674;DHT22;8450;52.654;10.326;2022-07-23T17:02:56;27.50;96.80
16674;DHT22;8450;52.654;10.326;2022-07-23T17:05:22;27.00;97.80
16674;DHT22;8450;52.654;10.326;2022-07-23T17:07:49;28.30;96.20
16674;DHT22;8450;52.654;10.326;2022-07-23T17:10:14;28.60;95.90
16674;DHT22;8450;52.654;10.326;2022-07-23T17:12:40;28.30;96.50
16674;DHT22;8450;52.654;10.326;2022-07-23T17:15:06;28.70;95.60
16674;DHT22;8450;52.654;10.326;2022-07-23T17:17:32;28.60;95.80
16674;DHT22;8450;52.654;10.326;2022-07-23T17:19:58;28.90;95.50
16674;DHT22;8450;52.654;10.326;2022-07-23T17:22:23;28.90;95.40
16674;DHT22;8450;52.654;10.326;2022-07-23T17:24:49;29.60;94.40
16674;DHT22;8450;52.654;10.326;2022-07-23T17:27:14;28.70;94.00
16674;DHT22;8450;52.654;10.326;2022-07-23T17:29:40;27.80;95.10
16674;DHT22;8450;52.654;10.326;2022-07-23T17:32:05;28.30;94.80
16674;DHT22;8450;52.654;10.326;2022-07-23T17:34:31;29.20;94.50
16674;DHT22;8450;52.654;10.326;2022-07-23T17:36:57;29.60;94.60
16674;DHT22;8450;52.654;10.326;2022-07-23T17:39:22;29.30;94.50
16674;DHT22;8450;52.654;10.326;2022-07-23T17:41:48;29.80;94.20
16674;DHT22;8450;52.654;10.326;2022-07-23T17:44:17;29.40;93.80
16674;DHT22;8450;52.654;10.326;2022-07-23T17:46:44;29.40;94.00
16674;DHT22;8450;52.654;10.326;2022-07-23T17:49:10;29.90;93.40
16674;DHT22;8450;52.654;10.326;2022-07-23T17:51:36;30.10;93.00
16674;DHT22;8450;52.654;10.326;2022-07-23T17:54:02;29.50;93.40
16674;DHT22;8450;52.654;10.326;2022-07-23T17:56:27;29.50;93.20
16674;DHT22;8450;52.654;10.326;2022-07-23T17:58:53;29.10;93.50
16674;DHT22;8450;52.654;10.326;2022-07-23T18:01:19;27.40;94.70
16674;DHT22;8450;52.654;10.326;2022-07-23T18:03:44;26.10;95.90
16674;DHT22;8450;52.654;10.326;2022-07-23T18:06:12;25.20;96.70
16674;DHT22;8450;52.654;10.326;2022-07-23T18:08:38;24.50;97.80
16674;DHT22;8450;52.654;10.326;2022-07-23T18:11:04;23.90;98.30
16674;DHT22;8450;52.654;10.326;2022-07-23T18:13:30;23.70;98.80
16674;DHT22;8450;52.654;10.326;2022-07-23T18:15:55;23.20;99.50
16674;DHT22;8450;52.654;10.326;2022-07-23T18:18:21;22.90;99.80
16674;DHT22;8450;52.654;10.326;2022-07-23T18:20:48;22.60;99.90
16674;DHT22;8450;52.654;10.326;2022-07-23T18:23:14;22.50;99.90
16674;DHT22;8450;52.654;10.326;2022-07-23T18:25:40;22.20;99.90
16674;DHT22;8450;52.654;10.326;2022-07-23T18:28:05;22.10;99.90
16674;DHT22;8450;52.654;10.326;2022-07-23T18:30:31;21.90;99.90
16674;DHT22;8450;52.654;10.326;2022-07-23T18:32:57;21.70;99.90
16674;DHT22;8450;52.654;10.326;2022-07-23T18:35:22;21.50;99.90
16674;DHT22;8450;52.654;10.326;2022-07-23T18:37:48;21.40;99.90
16674;DHT22;8450;52.654;10.326;2022-07-23T18:40:14;21.30;99.90
